Time;durP1;ratioP1;P1;durP2;ratioP2;P2;SDS_P1;SDS_P2;PMS_P1;PMS_P2;Temp;Humidity;BMP_temperature;BMP_pressure;BME280_temperature;BME280_humidity;BME280_pressure;Samples;Min_cycle;Max_cycle;Signal;HPM_P1;HPM_P2
2023/09/03 00:01:02;;;;;;;3.30;1.45;;;22.10;45.40;;;;;;5054320;28;20561;-62
2023/09/03 00:03:29;;;;;;;3.13;1.40;;;22.40;45.90;;;;;;5053831;28;20029;-63
2023/09/03 00:05:57;;;;;;;2.78;1.30;;;23.10;44.40;;;;;;5053669;28;20122;-63
2023/09/03 00:08:25;;;;;;;3.58;1.10;;;23.10;43.50;;;;;;5053945;28;20082;-63
2023/09/03 00:10:54;;;;;;;1.95;1.20;;;23.60;42.30;;;;;;5054959;28;20021;-64
2023/09/03 00:13:22;;;;;;;1.83;1.20;;;23.70;41.90;;;;;;5053860;28;20032;-62
2023/09/03 00:15:50;;;;;;;3.47;1.60;;;24.00;41.30;;;;;;5054098;28;20032;-63
2023/09/03 00:18:18;;;;;;;3.25;1.48;;;23.90;41.20;;;;;;5053963;28;20106;-64
2023/09/03 00:21:00;;;;;;;2.20;1.17;;;21.70;42.90;;;;;;5053938;28;20025;-63
2023/09/03 00:23:29;;;;;;;2.75;1.08;;;22.40;44.10;;;;;;5037516;28;20036;-63
2023/09/03 00:25:57;;;;;;;2.88;1.10;;;23.40;43.10;;;;;;5053746;28;20447;-62
2023/09/03 00:28:24;;;;;;;1.90;1.20;;;23.30;41.90;;;;;;5053397;28;20028;-62
2023/09/03 00:31:07;;;;;;;2.20;1.35;;;23.80;42.20;;;;;;5053628;28;20471;-64
2023/09/03 00:33:35;;;;;;;1.95;0.90;;;23.30;42.90;;;;;;5053573;28;20028;-63
2023/09/03 00:36:05;;;;;;;3.38;1.17;;;23.90;40.20;;;;;;5053697;28;20036;-63
2023/09/03 00:38:33;;;;;;;3.13;1.20;;;22.80;43.00;;;;;;5054483;28;20041;-63
2023/09/03 00:41:04;;;;;;;2.22;1.00;;;22.10;42.90;;;;;;5053630;28;20025;-63
2023/09/03 00:43:33;;;;;;;4.25;1.20;;;22.50;42.60;;;;;;5054299;28;20017;-64
2023/09/03 00:46:08;;;;;;;4.32;1.30;;;22.80;43.10;;;;;;5053343;28;20056;-63
2023/09/03 00:48:39;;;;;;;2.42;1.45;;;21.60;43.40;;;;;;5053294;28;20351;-64
2023/09/03 00:51:10;;;;;;;1.80;1.05;;;22.40;43.90;;;;;;5055336;28;20530;-64
2023/09/03 00:53:40;;;;;;;2.25;1.17;;;21.30;45.00;;;;;;5058408;28;20049;-64
2023/09/03 00:56:12;;;;;;;2.97;1.00;;;20.70;45.70;;;;;;5058327;28;20455;-65
2023/09/03 00:58:41;;;;;;;1.92;1.13;;;22.10;46.50;;;;;;5056882;28;20025;-62
2023/09/03 01:01:09;;;;;;;3.03;1.25;;;23.10;45.10;;;;;;5057321;28;20025;-64
2023/09/03 01:03:37;;;;;;;2.88;1.10;;;23.40;44.10;;;;;;5056758;28;20546;-64
2023/09/03 01:06:07;;;;;;;2.40;1.17;;;23.20;41.90;;;;;;5056987;28;20130;-63
2023/09/03 01:08:36;;;;;;;1.63;1.00;;;22.40;43.90;;;;;;5040662;28;20108;-64
2023/09/03 01:11:25;;;;;;;3.05;1.10;;;22.70;42.30;;;;;;5056908;28;20440;-63
2023/09/03 01:14:08;;;;;;;1.60;1.10;;;22.70;43.10;;;;;;5056424;28;20394;-64
2023/09/03 01:16:48;;;;;;;2.72;1.00;;;22.50;42.80;;;;;;5056725;28;20032;-64
2023/09/03 01:19:38;;;;;;;1.85;1.00;;;22.30;44.10;;;;;;5055969;28;20107;-62
2023/09/03 01:22:12;;;;;;;2.75;1.50;;;23.00;44.00;;;;;;5057074;28;20059;-65
2023/09/03 01:25:04;;;;;;;2.05;1.30;;;23.10;41.60;;;;;;5039267;28;20056;-64
2023/09/03 01:27:43;;;;;;;2.25;0.93;;;23.10;41.80;;;;;;5056542;28;20029;-64
2023/09/03 01:30:11;;;;;;;2.40;1.40;;;23.40;41.60;;;;;;5056299;28;20055;-64
2023/09/03 01:32:39;;;;;;;2.30;1.10;;;23.60;40.90;;;;;;5055981;28;20029;-63
2023/09/03 01:35:08;;;;;;;2.75;1.45;;;23.60;41.70;;;;;;5057265;28;20020;-63
2023/09/03 01:37:36;;;;;;;2.55;1.33;;;23.60;41.80;;;;;;5057059;28;20386;-64
2023/09/03 01:40:05;;;;;;;2.13;1.20;;;23.40;42.40;;;;;;5057187;28;20067;-64
2023/09/03 01:42:32;;;;;;;2.08;1.45;;;23.00;41.70;;;;;;5056266;28;20462;-63
2023/09/03 01:45:00;;;;;;;3.78;1.13;;;21.90;43.40;;;;;;5056978;28;20025;-63
2023/09/03 01:47:49;;;;;;;4.40;1.15;;;22.40;43.50;;;;;;5056280;28;20025;-64
2023/09/03 01:50:36;;;;;;;4.20;1.30;;;21.00;44.50;;;;;;5055842;28;20133;-64
2023/09/03 01:53:27;;;;;;;3.70;1.67;;;20.10;46.60;;;;;;5056099;28;20100;-63
2023/09/03 01:56:00;;;;;;;1.83;1.23;;;21.40;44.60;;;;;;5056172;28;20017;-63
2023/09/03 01:58:31;;;;;;;4.13;1.27;;;22.40;43.30;;;;;;5055673;28;20623;-64
2023/09/03 02:01:02;;;;;;;3.38;1.40;;;23.00;42.40;;;;;;5055386;28;20024;-64
2023/09/03 02:03:31;;;;;;;2.53;1.20;;;23.40;41.40;;;;;;5039422;28;20058;-64
2023/09/03 02:05:59;;;;;;;2.28;1.02;;;23.60;42.60;;;;;;5056464;28;20265;-64
2023/09/03 02:08:26;;;;;;;3.45;1.30;;;23.10;42.00;;;;;;5055096;28;20485;-64
2023/09/03 02:10:54;;;;;;;3.17;1.20;;;23.00;41.40;;;;;;5055827;28;20509;-64
2023/09/03 02:13:22;;;;;;;2.88;1.23;;;23.20;42.50;;;;;;5056730;28;20035;-63
2023/09/03 02:15:49;;;;;;;1.20;0.90;;;23.60;40.90;;;;;;5056658;28;20100;-64
2023/09/03 02:18:17;;;;;;;2.45;1.10;;;24.00;39.50;;;;;;5055553;28;20355;-64
2023/09/03 02:20:45;;;;;;;2.33;1.20;;;24.20;39.80;;;;;;5055762;28;20032;-63
2023/09/03 02:23:12;;;;;;;2.97;1.17;;;24.60;38.80;;;;;;5056693;28;20035;-64
2023/09/03 02:25:41;;;;;;;2.38;1.00;;;24.80;39.50;;;;;;5055618;28;20028;-64
2023/09/03 02:28:08;;;;;;;3.53;1.23;;;25.70;37.80;;;;;;5055215;28;20025;-62
2023/09/03 02:30:36;;;;;;;2.33;1.20;;;25.20;37.40;;;;;;5056333;28;20021;-63
2023/09/03 02:33:03;;;;;;;2.55;1.00;;;25.20;38.20;;;;;;5055309;28;20549;-63
2023/09/03 02:35:31;;;;;;;3.25;1.00;;;24.10;39.70;;;;;;5056388;28;20028;-63
2023/09/03 02:37:59;;;;;;;2.95;1.00;;;23.20;40.20;;;;;;5056012;28;20098;-64
2023/09/03 02:40:26;;;;;;;1.90;0.93;;;22.60;41.10;;;;;;5054831;28;20036;-63
2023/09/03 02:42:54;;;;;;;2.83;1.33;;;23.40;40.70;;;;;;5055071;28;20048;-63
2023/09/03 02:45:21;;;;;;;3.33;1.10;;;23.50;40.20;;;;;;5056568;28;20031;-64
2023/09/03 02:47:49;;;;;;;2.03;1.17;;;23.60;42.20;;;;;;5055012;28;20036;-64
2023/09/03 02:50:16;;;;;;;1.83;1.10;;;23.80;40.70;;;;;;5054955;28;20048;-64
2023/09/03 02:52:44;;;;;;;2.65;1.20;;;23.60;39.60;;;;;;5055051;28;20103;-63
2023/09/03 02:55:13;;;;;;;2.10;1.10;;;23.80;39.30;;;;;;5055096;28;20067;-64
2023/09/03 02:57:41;;;;;;;3.00;1.40;;;23.70;41.40;;;;;;5054992;28;20462;-65
2023/09/03 03:00:09;;;;;;;1.85;0.95;;;23.40;39.60;;;;;;5056161;28;20033;-63
2023/09/03 03:02:36;;;;;;;1.73;1.00;;;24.10;40.80;;;;;;5055563;28;20391;-63
2023/09/03 03:05:04;;;;;;;3.35;1.17;;;24.30;39.20;;;;;;5055257;28;20029;-64
2023/09/03 03:07:32;;;;;;;3.33;1.30;;;23.90;39.70;;;;;;5055760;28;20082;-64
2023/09/03 03:10:00;;;;;;;2.95;1.40;;;23.70;39.20;;;;;;5054867;28;20032;-63
2023/09/03 03:12:27;;;;;;;2.80;1.30;;;23.60;39.90;;;;;;5054385;28;20043;-63
2023/09/03 03:14:55;;;;;;;3.00;1.08;;;23.50;41.70;;;;;;5054494;28;20017;-63
2023/09/03 03:17:23;;;;;;;3.38;1.40;;;24.50;39.30;;;;;;5054411;28;20427;-63
2023/09/03 03:19:51;;;;;;;3.03;1.20;;;24.70;38.30;;;;;;5055188;28;20053;-63
2023/09/03 03:22:19;;;;;;;7.10;2.50;;;25.50;37.60;;;;;;5054393;28;20116;-63
2023/09/03 03:24:49;;;;;;;3.78;1.92;;;25.20;38.80;;;;;;5054241;28;20040;-63
2023/09/03 03:27:18;;;;;;;2.92;1.45;;;25.40;37.20;;;;;;5055202;28;20048;-63
2023/09/03 03:29:45;;;;;;;3.30;1.10;;;24.90;38.70;;;;;;5054079;28;20037;-63
2023/09/03 03:32:13;;;;;;;3.35;1.30;;;25.10;37.60;;;;;;5054219;28;20028;-64
2023/09/03 03:34:44;;;;;;;2.70;1.27;;;25.00;38.00;;;;;;5053917;28;20033;-64
2023/09/03 03:37:11;;;;;;;3.55;1.40;;;25.20;37.20;;;;;;5054238;28;20017;-64
2023/09/03 03:39:39;;;;;;;3.97;1.30;;;25.30;36.10;;;;;;5054565;28;20028;-64
2023/09/03 03:42:07;;;;;;;3.47;1.30;;;25.00;36.90;;;;;;5054067;28;20102;-64
2023/09/03 03:44:34;;;;;;;3.47;1.40;;;24.80;36.70;;;;;;5054014;28;20040;-64
2023/09/03 03:47:02;;;;;;;1.92;1.20;;;24.50;37.80;;;;;;5054151;28;20451;-64
2023/09/03 03:49:29;;;;;;;1.83;1.10;;;25.00;37.70;;;;;;5055052;28;20036;-64
2023/09/03 03:51:57;;;;;;;2.42;1.05;;;25.50;37.00;;;;;;5054757;28;20395;-64
2023/09/03 03:54:24;;;;;;;3.38;1.65;;;25.60;38.00;;;;;;5053899;28;20028;-64
2023/09/03 03:56:52;;;;;;;3.22;1.35;;;25.60;36.70;;;;;;5053855;28;20069;-64
2023/09/03 03:59:19;;;;;;;3.92;1.30;;;25.20;36.40;;;;;;5053751;28;20539;-64
2023/09/03 04:01:47;;;;;;;2.60;0.98;;;24.70;38.50;;;;;;5053683;28;20059;-64
2023/09/03 04:04:14;;;;;;;1.98;1.17;;;25.60;38.40;;;;;;5053810;28;20055;-65
2023/09/03 04:06:42;;;;;;;2.85;1.15;;;25.60;36.80;;;;;;5053902;28;20075;-64
2023/09/03 04:09:09;;;;;;;2.72;0.90;;;24.80;37.00;;;;;;5054514;28;20101;-64
2023/09/03 04:11:40;;;;;;;2.55;1.10;;;24.60;37.30;;;;;;5054073;28;20025;-63
2023/09/03 04:14:08;;;;;;;2.67;1.10;;;24.50;38.00;;;;;;5054839;28;20025;-63
2023/09/03 04:16:35;;;;;;;3.17;1.30;;;24.30;39.00;;;;;;5053613;28;20036;-64
2023/09/03 04:19:03;;;;;;;2.70;1.20;;;24.70;38.20;;;;;;5054476;28;20036;-63
2023/09/03 04:21:31;;;;;;;6.57;2.60;;;24.60;42.80;;;;;;5053835;28;20025;-62
2023/09/03 04:23:58;;;;;;;7.47;1.75;;;24.30;43.70;;;;;;5054253;28;20028;-62
2023/09/03 04:26:25;;;;;;;3.35;1.23;;;23.70;44.00;;;;;;5058440;28;20021;-62
2023/09/03 04:28:53;;;;;;;4.13;1.35;;;23.60;44.40;;;;;;5059544;28;20050;-64
2023/09/03 04:31:21;;;;;;;4.20;1.40;;;23.30;45.50;;;;;;5058514;28;20451;-65
2023/09/03 04:33:48;;;;;;;4.43;1.40;;;23.50;45.90;;;;;;5057426;28;20029;-65
2023/09/03 04:36:16;;;;;;;3.88;1.10;;;23.60;46.80;;;;;;5058148;28;20021;-64
2023/09/03 04:38:44;;;;;;;3.72;1.30;;;24.00;46.30;;;;;;5058547;28;20049;-63
2023/09/03 04:41:11;;;;;;;5.35;1.77;;;23.90;46.40;;;;;;5058674;28;20029;-64
2023/09/03 04:43:42;;;;;;;4.70;1.15;;;22.80;48.30;;;;;;5057842;28;20459;-64
2023/09/03 04:46:09;;;;;;;5.15;1.95;;;22.60;47.90;;;;;;5058981;28;20029;-64
2023/09/03 04:48:37;;;;;;;6.30;1.95;;;22.70;48.60;;;;;;5058291;28;20029;-64
2023/09/03 04:51:07;;;;;;;5.10;1.70;;;23.00;48.80;;;;;;5057521;28;20071;-65
2023/09/03 04:53:34;;;;;;;5.70;1.77;;;23.00;48.10;;;;;;5058417;28;20067;-65
2023/09/03 04:56:11;;;;;;;2.88;1.10;;;22.70;48.60;;;;;;5057301;28;20021;-66
2023/09/03 04:58:38;;;;;;;3.65;1.45;;;22.30;48.50;;;;;;5040659;28;20032;-66
2023/09/03 05:01:16;;;;;;;2.92;1.00;;;22.60;48.60;;;;;;5057821;28;20025;-66
2023/09/03 05:03:44;;;;;;;3.30;1.10;;;22.50;47.90;;;;;;5057355;28;20083;-63
2023/09/03 05:06:16;;;;;;;2.58;1.10;;;22.40;48.50;;;;;;5058140;28;20029;-62
2023/09/03 05:08:45;;;;;;;2.10;0.90;;;22.00;50.20;;;;;;5058498;28;20438;-61
2023/09/03 05:11:15;;;;;;;3.50;0.90;;;21.80;50.40;;;;;;5056310;28;20319;-61
2023/09/03 05:13:42;;;;;;;3.42;1.15;;;21.80;50.90;;;;;;5056865;28;20044;-61
2023/09/03 05:16:10;;;;;;;2.53;0.80;;;21.80;51.60;;;;;;5056629;28;20052;-61
2023/09/03 05:18:38;;;;;;;5.50;0.90;;;21.70;51.40;;;;;;5056572;28;20028;-62
2023/09/03 05:21:10;;;;;;;5.13;0.82;;;21.80;51.60;;;;;;5056558;28;20044;-61
2023/09/03 05:23:37;;;;;;;2.53;0.70;;;21.50;51.60;;;;;;5057343;28;20048;-61
2023/09/03 05:26:05;;;;;;;2.65;0.80;;;20.90;53.00;;;;;;5058062;28;20344;-63
2023/09/03 05:28:32;;;;;;;3.85;1.45;;;21.10;53.20;;;;;;5056176;28;20508;-63
2023/09/03 05:31:00;;;;;;;3.22;0.90;;;21.60;52.70;;;;;;5056323;28;20343;-64
2023/09/03 05:33:28;;;;;;;4.30;1.17;;;21.50;52.60;;;;;;5057275;28;20350;-64
2023/09/03 05:35:55;;;;;;;3.15;0.90;;;22.40;50.40;;;;;;5056207;28;20486;-63
2023/09/03 05:38:23;;;;;;;1.35;0.70;;;23.10;49.00;;;;;;5056335;28;20029;-63
2023/09/03 05:40:50;;;;;;;3.92;1.13;;;23.80;46.50;;;;;;5057795;28;20478;-62
2023/09/03 05:43:18;;;;;;;4.10;1.08;;;24.10;46.60;;;;;;5057649;28;20104;-63
2023/09/03 05:45:50;;;;;;;3.15;1.00;;;24.90;44.70;;;;;;5056251;28;20025;-63
2023/09/03 05:48:17;;;;;;;2.83;1.52;;;24.10;45.80;;;;;;5040016;28;20089;-63
2023/09/03 05:50:44;;;;;;;4.10;1.05;;;24.90;44.80;;;;;;5056078;28;20148;-63
2023/09/03 05:53:12;;;;;;;2.13;1.13;;;24.80;44.40;;;;;;5057091;28;20025;-63
2023/09/03 05:55:40;;;;;;;4.47;1.00;;;25.30;43.60;;;;;;5056140;28;20052;-64
2023/09/03 05:58:07;;;;;;;4.20;1.30;;;25.80;43.00;;;;;;5056153;28;20024;-63
2023/09/03 06:00:39;;;;;;;2.80;0.80;;;25.80;42.40;;;;;;5056182;28;20119;-63
2023/09/03 06:03:08;;;;;;;3.85;1.20;;;25.60;42.90;;;;;;5056385;28;20096;-63
2023/09/03 06:05:36;;;;;;;2.08;0.93;;;25.70;42.60;;;;;;5056169;28;20035;-64
2023/09/03 06:08:04;;;;;;;2.58;0.90;;;25.40;43.10;;;;;;5056921;28;20025;-63
2023/09/03 06:10:32;;;;;;;3.28;1.30;;;24.90;43.90;;;;;;5056802;28;20020;-63
2023/09/03 06:12:59;;;;;;;1.92;0.70;;;24.70;44.30;;;;;;5055879;28;20025;-62
2023/09/03 06:15:27;;;;;;;3.30;0.85;;;24.80;43.80;;;;;;5056684;28;20036;-63
2023/09/03 06:17:55;;;;;;;2.53;0.90;;;25.00;44.00;;;;;;5056742;28;20017;-63
2023/09/03 06:20:22;;;;;;;2.60;1.23;;;24.90;43.40;;;;;;5055641;28;20021;-63
2023/09/03 06:22:50;;;;;;;2.70;0.98;;;24.10;45.50;;;;;;5055754;28;20025;-64
2023/09/03 06:25:18;;;;;;;3.22;1.05;;;24.60;44.40;;;;;;5055728;28;20025;-64
2023/09/03 06:27:46;;;;;;;4.47;1.50;;;25.00;44.10;;;;;;5055669;28;20463;-63
2023/09/03 06:30:13;;;;;;;3.35;1.05;;;25.10;43.60;;;;;;5056622;28;20470;-63
2023/09/03 06:32:41;;;;;;;5.03;1.40;;;23.80;45.60;;;;;;5055491;28;20055;-63
2023/09/03 06:35:09;;;;;;;4.15;1.00;;;24.40;45.00;;;;;;5055429;28;20025;-63
2023/09/03 06:37:37;;;;;;;2.88;1.17;;;23.10;47.10;;;;;;5055439;28;20125;-63
2023/09/03 06:40:05;;;;;;;3.05;0.90;;;22.70;48.80;;;;;;5055300;28;20105;-63
2023/09/03 06:42:33;;;;;;;3.45;0.88;;;23.20;47.50;;;;;;5055285;28;20025;-63
2023/09/03 06:45:00;;;;;;;5.28;1.15;;;22.80;48.10;;;;;;5056183;28;20025;-63
2023/09/03 06:47:28;;;;;;;4.72;1.10;;;22.60;49.30;;;;;;5055218;28;20029;-63
2023/09/03 06:49:55;;;;;;;2.55;0.73;;;21.10;51.80;;;;;;5054860;28;20029;-62
2023/09/03 06:52:23;;;;;;;3.17;0.82;;;19.30;56.60;;;;;;5053803;28;20478;-63
2023/09/03 06:54:50;;;;;;;3.70;0.80;;;18.70;58.40;;;;;;5055059;28;20032;-61
2023/09/03 06:57:20;;;;;;;4.47;1.35;;;18.40;59.40;;;;;;5054652;28;20103;-62
2023/09/03 06:59:47;;;;;;;5.63;1.13;;;18.30;60.00;;;;;;5054861;28;20032;-62
2023/09/03 07:02:15;;;;;;;4.47;1.13;;;18.10;60.10;;;;;;5055896;28;20359;-62
2023/09/03 07:04:42;;;;;;;1.85;0.50;;;18.00;60.50;;;;;;5054601;28;20029;-63
2023/09/03 07:07:10;;;;;;;2.47;0.57;;;17.70;60.80;;;;;;5055864;28;20112;-63
2023/09/03 07:09:38;;;;;;;2.55;0.43;;;17.50;61.90;;;;;;5055623;28;20036;-63
2023/09/03 07:12:06;;;;;;;2.53;0.70;;;17.40;62.40;;;;;;5054471;28;20021;-62
2023/09/03 07:14:35;;;;;;;3.83;0.63;;;17.30;62.30;;;;;;5054706;28;20028;-62
2023/09/03 07:17:04;;;;;;;1.42;0.60;;;17.20;62.70;;;;;;5054650;28;20359;-63
2023/09/03 07:19:31;;;;;;;3.03;0.70;;;17.10;63.10;;;;;;5054529;28;20017;-62
2023/09/03 07:22:00;;;;;;;2.10;0.63;;;17.00;63.30;;;;;;5055619;28;20036;-62
2023/09/03 07:24:27;;;;;;;2.90;0.60;;;16.90;63.70;;;;;;5054539;28;20029;-63
2023/09/03 07:26:55;;;;;;;3.38;0.88;;;16.80;63.90;;;;;;5054530;28;20025;-62
2023/09/03 07:29:22;;;;;;;5.57;0.88;;;16.70;64.30;;;;;;5054329;28;20024;-62
2023/09/03 07:31:50;;;;;;;1.85;0.95;;;16.70;64.60;;;;;;5055202;28;20458;-62
2023/09/03 07:34:18;;;;;;;2.22;0.47;;;16.60;64.90;;;;;;5055163;28;20024;-63
2023/09/03 07:36:45;;;;;;;1.50;0.70;;;16.50;65.20;;;;;;5054328;28;20021;-63
2023/09/03 07:39:13;;;;;;;5.47;1.10;;;16.40;65.50;;;;;;5053924;28;20039;-62
2023/09/03 07:41:41;;;;;;;2.28;0.70;;;16.40;65.50;;;;;;5054262;28;20029;-63
2023/09/03 07:44:08;;;;;;;3.10;0.73;;;16.30;65.50;;;;;;5054226;28;20471;-64
2023/09/03 07:46:36;;;;;;;3.03;1.30;;;16.20;66.20;;;;;;5054077;28;20079;-62
2023/09/03 07:49:04;;;;;;;4.18;1.25;;;16.20;65.90;;;;;;5054114;28;20025;-63
2023/09/03 07:51:31;;;;;;;1.60;0.70;;;16.10;66.00;;;;;;5053529;28;20048;-67
2023/09/03 07:53:59;;;;;;;4.68;1.40;;;16.10;66.10;;;;;;5054197;28;20021;-67
2023/09/03 07:56:27;;;;;;;2.22;0.98;;;16.10;66.40;;;;;;5055142;28;20017;-67
2023/09/03 07:58:55;;;;;;;3.85;0.98;;;16.00;66.70;;;;;;5053644;28;20021;-67
2023/09/03 08:01:22;;;;;;;1.35;0.68;;;16.00;66.80;;;;;;5054083;28;20041;-68
2023/09/03 08:03:50;;;;;;;3.13;0.80;;;15.90;67.10;;;;;;5054005;28;20044;-67
2023/09/03 08:06:18;;;;;;;5.97;0.95;;;15.90;67.20;;;;;;5054005;28;20447;-67
2023/09/03 08:08:53;;;;;;;1.77;0.80;;;15.80;67.30;;;;;;5053967;28;20064;-68
2023/09/03 08:11:21;;;;;;;3.35;1.45;;;15.80;67.40;;;;;;5053833;28;20047;-66
2023/09/03 08:13:57;;;;;;;2.80;1.50;;;15.80;67.50;;;;;;5054781;28;20025;-68
2023/09/03 08:16:24;;;;;;;3.08;0.90;;;15.70;67.80;;;;;;5053851;28;20443;-66
2023/09/03 08:18:52;;;;;;;5.60;1.20;;;15.70;68.00;;;;;;5054754;28;20049;-67
2023/09/03 08:21:20;;;;;;;3.05;0.90;;;15.60;68.10;;;;;;5054782;28;20104;-67
2023/09/03 08:23:47;;;;;;;2.65;0.85;;;15.60;68.20;;;;;;5054490;28;20027;-67
2023/09/03 08:26:15;;;;;;;4.57;1.35;;;15.60;68.40;;;;;;5054674;28;20505;-67
2023/09/03 08:28:42;;;;;;;6.15;1.48;;;15.50;68.60;;;;;;5053919;28;20039;-68
2023/09/03 08:31:10;;;;;;;3.72;1.20;;;15.50;68.90;;;;;;5053978;28;20526;-65
2023/09/03 08:33:40;;;;;;;4.70;1.25;;;15.50;69.00;;;;;;5054137;28;20090;-69
2023/09/03 08:36:11;;;;;;;3.53;1.25;;;15.40;69.10;;;;;;5053570;28;20021;-66
2023/09/03 08:38:38;;;;;;;3.25;1.30;;;15.40;69.20;;;;;;5053387;28;20031;-68
2023/09/03 08:41:06;;;;;;;6.55;1.40;;;15.40;69.30;;;;;;5053682;28;20036;-68
2023/09/03 08:43:34;;;;;;;4.07;1.30;;;15.30;69.50;;;;;;5053508;28;20025;-67
2023/09/03 08:46:11;;;;;;;1.95;0.93;;;15.30;69.50;;;;;;5053526;28;20486;-67
2023/09/03 08:48:39;;;;;;;2.67;1.65;;;15.30;69.70;;;;;;5054492;28;20463;-68
2023/09/03 08:51:07;;;;;;;4.57;1.42;;;15.20;69.80;;;;;;5054323;28;20040;-68
2023/09/03 08:53:36;;;;;;;4.18;1.20;;;15.20;69.90;;;;;;5053529;28;20114;-67
2023/09/03 08:56:04;;;;;;;5.20;1.38;;;15.20;69.80;;;;;;5053552;28;20116;-68
2023/09/03 08:58:33;;;;;;;2.60;1.20;;;15.10;70.10;;;;;;5053881;28;20079;-67
2023/09/03 09:01:00;;;;;;;2.63;1.05;;;15.00;70.40;;;;;;5053331;28;20025;-67
2023/09/03 09:03:29;;;;;;;7.50;1.60;;;15.00;70.40;;;;;;5053452;28;20025;-68
2023/09/03 09:05:58;;;;;;;7.30;1.30;;;15.00;70.70;;;;;;5053241;28;20028;-67
2023/09/03 09:08:27;;;;;;;2.30;1.35;;;15.00;70.80;;;;;;5053085;28;20056;-67
2023/09/03 09:10:59;;;;;;;5.68;1.80;;;15.00;71.10;;;;;;5054463;28;20025;-68
2023/09/03 09:13:27;;;;;;;4.78;1.92;;;14.90;71.30;;;;;;5040469;28;20120;-68
2023/09/03 09:15:55;;;;;;;3.53;2.10;;;14.90;71.20;;;;;;5057997;28;20391;-68
2023/09/03 09:18:22;;;;;;;6.13;2.50;;;14.90;71.20;;;;;;5056923;28;20017;-68
2023/09/03 09:20:54;;;;;;;10.88;4.13;;;14.90;71.20;;;;;;5056937;28;20111;-68
2023/09/03 09:23:26;;;;;;;12.57;5.55;;;14.90;71.40;;;;;;5056582;28;20075;-67
2023/09/03 09:25:55;;;;;;;;;;;14.90;71.70;;;;;;5040681;28;20078;-67
2023/09/03 09:28:23;;;;;;;7.07;3.30;;;14.80;71.50;;;;;;5056681;28;19958;-66
2023/09/03 09:30:58;;;;;;;6.15;2.88;;;14.90;71.60;;;;;;5056509;28;20029;-71
2023/09/03 09:33:26;;;;;;;8.32;3.10;;;14.60;72.40;;;;;;5056624;28;20112;-70
2023/09/03 09:35:54;;;;;;;5.60;2.40;;;14.50;72.70;;;;;;5057025;28;20020;-67
2023/09/03 09:38:38;;;;;;;4.95;2.20;;;14.50;73.10;;;;;;5057099;28;20021;-67
2023/09/03 09:41:23;;;;;;;5.68;1.90;;;14.50;72.80;;;;;;5056632;28;20059;-66
2023/09/03 09:43:51;;;;;;;4.68;1.88;;;14.50;72.50;;;;;;5039918;28;20032;-66
2023/09/03 09:46:29;;;;;;;5.00;2.10;;;14.50;72.50;;;;;;5056473;28;20025;-66
2023/09/03 09:49:02;;;;;;;2.38;1.83;;;14.40;73.20;;;;;;5056447;28;20023;-66
2023/09/03 09:51:31;;;;;;;4.07;1.70;;;14.10;74.30;;;;;;5057190;28;20060;-66
2023/09/03 09:53:59;;;;;;;4.53;1.63;;;14.00;74.90;;;;;;5057401;28;20021;-66
2023/09/03 09:56:29;;;;;;;4.10;1.90;;;13.90;75.10;;;;;;5056476;28;20104;-66
2023/09/03 09:58:58;;;;;;;6.40;2.30;;;13.90;75.20;;;;;;5056214;28;20031;-66
2023/09/03 10:01:27;;;;;;;6.65;2.55;;;13.70;75.70;;;;;;5056150;28;20021;-65
2023/09/03 10:03:55;;;;;;;7.32;2.92;;;13.70;75.90;;;;;;5056159;28;20509;-65
2023/09/03 10:06:24;;;;;;;5.43;3.45;;;13.50;76.20;;;;;;5056538;28;20060;-65
2023/09/03 10:08:52;;;;;;;6.15;3.70;;;13.60;76.10;;;;;;5055581;28;20028;-66
2023/09/03 10:11:22;;;;;;;7.35;3.20;;;13.60;75.60;;;;;;5056154;28;20063;-66
2023/09/03 10:13:50;;;;;;;7.38;3.88;;;13.50;76.20;;;;;;5055890;28;20036;-67
2023/09/03 10:16:21;;;;;;;6.75;3.65;;;13.50;76.60;;;;;;5055878;28;20021;-66
2023/09/03 10:18:51;;;;;;;6.57;3.88;;;13.30;77.30;;;;;;5055806;28;20035;-67
2023/09/03 10:21:26;;;;;;;6.00;3.63;;;13.30;77.10;;;;;;5055815;28;20021;-67
2023/09/03 10:23:54;;;;;;;7.20;3.90;;;13.20;77.00;;;;;;5056515;28;20447;-66
2023/09/03 10:26:35;;;;;;;9.23;3.33;;;13.20;77.00;;;;;;5056706;28;20375;-66
2023/09/03 10:29:07;;;;;;;6.70;3.60;;;13.00;78.10;;;;;;5055579;28;20040;-66
2023/09/03 10:31:38;;;;;;;8.60;4.53;;;13.00;78.30;;;;;;5055566;28;20029;-66
2023/09/03 10:34:11;;;;;;;8.05;4.30;;;12.90;78.60;;;;;;5055526;28;20016;-67
2023/09/03 10:36:38;;;;;;;8.98;6.93;;;12.90;78.60;;;;;;5055538;28;20391;-67
2023/09/03 10:39:25;;;;;;;12.65;9.60;;;12.90;78.60;;;;;;5055309;28;20184;-67
2023/09/03 10:42:16;;;;;;;10.57;8.27;;;12.90;78.70;;;;;;5055415;28;20049;-66
2023/09/03 10:44:50;;;;;;;6.60;4.20;;;12.80;79.00;;;;;;5056358;28;20031;-66
2023/09/03 10:47:18;;;;;;;7.43;4.00;;;12.50;79.90;;;;;;5055383;28;20025;-66
2023/09/03 10:49:51;;;;;;;8.32;4.25;;;12.50;80.10;;;;;;5055185;28;20071;-67
2023/09/03 10:52:40;;;;;;;7.50;4.13;;;12.30;80.70;;;;;;5054984;28;20132;-68
2023/09/03 10:55:22;;;;;;;7.82;3.53;;;12.40;80.50;;;;;;5056125;28;20040;-64
2023/09/03 10:58:10;;;;;;;7.35;3.67;;;12.20;81.00;;;;;;5055447;28;20025;-65
2023/09/03 11:00:38;;;;;;;7.00;4.40;;;12.30;80.20;;;;;;5054147;28;20451;-65
2023/09/03 11:03:21;;;;;;;7.88;4.85;;;12.30;80.60;;;;;;5050732;28;20033;-65
2023/09/03 11:06:18;;;;;;;6.78;3.92;;;12.00;81.60;;;;;;5050515;28;20140;-65
2023/09/03 11:09:05;;;;;;;9.25;4.45;;;12.00;81.80;;;;;;5052711;28;20482;-66
2023/09/03 11:11:35;;;;;;;7.70;4.72;;;11.80;82.40;;;;;;5054732;28;20040;-65
2023/09/03 11:14:03;;;;;;;8.10;5.07;;;11.90;82.20;;;;;;5054851;28;20028;-66
2023/09/03 11:16:33;;;;;;;8.50;4.78;;;11.90;82.20;;;;;;5054821;28;20039;-65
2023/09/03 11:19:07;;;;;;;9.52;4.65;;;11.80;82.40;;;;;;5054664;28;20032;-65
2023/09/03 11:21:36;;;;;;;8.05;4.30;;;11.80;82.40;;;;;;5054780;28;20017;-66
2023/09/03 11:24:13;;;;;;;8.07;4.88;;;11.60;82.80;;;;;;5054689;28;20032;-65
2023/09/03 11:26:41;;;;;;;8.65;4.25;;;11.50;83.30;;;;;;5054588;28;20028;-65
2023/09/03 11:29:23;;;;;;;7.65;4.15;;;11.50;83.40;;;;;;5054160;28;20017;-64
2023/09/03 11:31:51;;;;;;;6.63;4.55;;;11.50;83.70;;;;;;5054229;28;20024;-65
2023/09/03 11:34:20;;;;;;;6.05;4.13;;;11.30;84.00;;;;;;5053769;28;20032;-65
2023/09/03 11:36:47;;;;;;;5.43;3.67;;;11.50;83.20;;;;;;5054396;28;20100;-65
2023/09/03 11:39:16;;;;;;;6.05;4.43;;;11.60;82.70;;;;;;5053988;28;20049;-65
2023/09/03 11:41:48;;;;;;;10.00;4.80;;;11.30;83.60;;;;;;5054048;28;20079;-65
2023/09/03 11:44:21;;;;;;;5.75;4.18;;;11.30;83.90;;;;;;5054324;28;20021;-65
2023/09/03 11:47:01;;;;;;;10.50;4.15;;;11.10;84.50;;;;;;5054334;28;20099;-65
2023/09/03 11:49:29;;;;;;;9.60;3.65;;;11.20;84.20;;;;;;5054282;28;20036;-65
2023/09/03 11:52:17;;;;;;;4.50;3.55;;;11.30;84.40;;;;;;5054014;28;20124;-65
2023/09/03 11:54:44;;;;;;;6.93;4.30;;;11.50;83.10;;;;;;5054212;28;20332;-65
2023/09/03 11:57:18;;;;;;;6.78;3.60;;;11.30;83.60;;;;;;5054214;28;20052;-65
2023/09/03 11:59:45;;;;;;;10.45;3.85;;;11.40;83.70;;;;;;5054029;28;20035;-65
2023/09/03 12:02:14;;;;;;;9.02;4.32;;;11.10;84.00;;;;;;5055061;28;20328;-65
2023/09/03 12:04:42;;;;;;;8.15;4.03;;;11.10;84.40;;;;;;5054990;28;20021;-65
2023/09/03 12:07:16;;;;;;;6.93;3.60;;;11.20;84.10;;;;;;5054075;28;20025;-64
2023/09/03 12:09:47;;;;;;;7.07;3.85;;;11.40;83.90;;;;;;5053959;28;20025;-66
2023/09/03 12:12:15;;;;;;;9.10;4.25;;;11.30;82.80;;;;;;5054907;28;20224;-66
2023/09/03 12:14:43;;;;;;;7.43;3.95;;;11.20;82.90;;;;;;5054069;28;20481;-65
2023/09/03 12:17:11;;;;;;;7.82;3.65;;;11.30;82.60;;;;;;5037502;28;20033;-64
2023/09/03 12:19:42;;;;;;;8.05;3.90;;;11.40;82.40;;;;;;5054862;28;20025;-66
2023/09/03 12:22:14;;;;;;;5.18;3.75;;;11.40;81.90;;;;;;5053969;28;20071;-65
2023/09/03 12:24:41;;;;;;;7.03;3.50;;;11.40;82.20;;;;;;5053989;28;20024;-65
2023/09/03 12:27:09;;;;;;;6.60;3.30;;;11.10;83.40;;;;;;5053944;28;20025;-64
2023/09/03 12:29:38;;;;;;;8.52;3.83;;;11.00;83.50;;;;;;5053839;28;20025;-65
2023/09/03 12:32:08;;;;;;;7.55;3.40;;;10.70;84.60;;;;;;5053823;28;20074;-64
2023/09/03 12:34:39;;;;;;;7.25;3.22;;;10.60;85.50;;;;;;5053839;28;20033;-63
2023/09/03 12:37:08;;;;;;;7.32;3.00;;;10.70;85.40;;;;;;5053939;28;20032;-65
2023/09/03 12:39:42;;;;;;;7.18;3.40;;;10.80;85.00;;;;;;5053680;28;20036;-65
2023/09/03 12:42:11;;;;;;;7.22;3.55;;;10.80;84.60;;;;;;5053875;28;20111;-65
2023/09/03 12:44:42;;;;;;;7.82;3.30;;;10.70;85.00;;;;;;5054668;28;20033;-65
2023/09/03 12:47:10;;;;;;;4.87;3.20;;;10.80;84.80;;;;;;5057799;28;20029;-65
2023/09/03 12:49:37;;;;;;;7.25;3.30;;;10.80;84.80;;;;;;5057526;28;20293;-64
2023/09/03 12:52:05;;;;;;;7.78;3.80;;;10.70;85.00;;;;;;5058352;28;20045;-65
2023/09/03 12:54:34;;;;;;;7.32;3.15;;;10.80;85.00;;;;;;5057515;28;20057;-65
2023/09/03 12:57:01;;;;;;;6.47;3.20;;;10.80;84.50;;;;;;5057524;28;20071;-64
2023/09/03 12:59:29;;;;;;;5.05;3.30;;;10.90;83.80;;;;;;5057353;28;20036;-64
2023/09/03 13:01:57;;;;;;;4.38;2.63;;;10.80;84.20;;;;;;5057452;28;20039;-63